sensor_id;sensor_type;location;lat;lon;timestamp;P1;durP1;ratioP1;P2;durP2;ratioP2
10467;SDS011;5281;48.878;9.394;2022-10-20T00:00:13;12.47;;;6.80;;
10467;SDS011;5281;48.878;9.394;2022-10-20T00:02:40;9.83;;;7.43;;
10467;SDS011;5281;48.878;9.394;2022-10-20T00:05:07;8.17;;;7.13;;
10467;SDS011;5281;48.878;9.394;2022-10-20T00:07:35;10.10;;;7.90;;
10467;SDS011;5281;48.878;9.394;2022-10-20T00:10:02;9.53;;;7.97;;
10467;SDS011;5281;48.878;9.394;2022-10-20T00:12:29;10.67;;;7.60;;
10467;SDS011;5281;48.878;9.394;2022-10-20T00:14:56;9.67;;;7.97;;
10467;SDS011;5281;48.878;9.394;2022-10-20T00:17:23;10.13;;;7.43;;
10467;SDS011;5281;48.878;9.394;2022-10-20T00:19:49;13.63;;;7.83;;
10467;SDS011;5281;48.878;9.394;2022-10-20T00:22:16;9.00;;;7.33;;
10467;SDS011;5281;48.878;9.394;2022-10-20T00:24:44;9.20;;;7.37;;
10467;SDS011;5281;48.878;9.394;2022-10-20T00:27:11;8.97;;;7.57;;
10467;SDS011;5281;48.878;9.394;2022-10-20T00:29:38;9.30;;;7.70;;
10467;SDS011;5281;48.878;9.394;2022-10-20T00:32:04;10.40;;;7.43;;
10467;SDS011;5281;48.878;9.394;2022-10-20T00:34:31;11.83;;;7.93;;
10467;SDS011;5281;48.878;9.394;2022-10-20T00:36:58;10.30;;;7.60;;
10467;SDS011;5281;48.878;9.394;2022-10-20T00:39:25;16.50;;;8.17;;
10467;SDS011;5281;48.878;9.394;2022-10-20T00:41:53;11.60;;;8.10;;
10467;SDS011;5281;48.878;9.394;2022-10-20T00:47:13;10.73;;;7.80;;
10467;SDS011;5281;48.878;9.394;2022-10-20T00:49:44;10.37;;;7.80;;
10467;SDS011;5281;48.878;9.394;2022-10-20T00:52:12;11.00;;;8.20;;
10467;SDS011;5281;48.878;9.394;2022-10-20T00:54:42;10.43;;;7.90;;
10467;SDS011;5281;48.878;9.394;2022-10-20T00:57:11;9.40;;;7.87;;
10467;SDS011;5281;48.878;9.394;2022-10-20T00:59:38;10.30;;;8.07;;
10467;SDS011;5281;48.878;9.394;2022-10-20T01:02:05;10.43;;;7.70;;
10467;SDS011;5281;48.878;9.394;2022-10-20T01:04:34;11.00;;;7.70;;
10467;SDS011;5281;48.878;9.394;2022-10-20T01:07:02;10.03;;;7.87;;
10467;SDS011;5281;48.878;9.394;2022-10-20T01:09:30;11.67;;;7.93;;
10467;SDS011;5281;48.878;9.394;2022-10-20T01:11:59;11.57;;;7.40;;
10467;SDS011;5281;48.878;9.394;2022-10-20T01:14:38;11.03;;;7.97;;
10467;SDS011;5281;48.878;9.394;2022-10-20T01:17:11;13.80;;;9.07;;
10467;SDS011;5281;48.878;9.394;2022-10-20T01:22:55;10.30;;;7.90;;
10467;SDS011;5281;48.878;9.394;2022-10-20T01:25:45;14.47;;;8.43;;
10467;SDS011;5281;48.878;9.394;2022-10-20T01:28:24;12.07;;;8.60;;
10467;SDS011;5281;48.878;9.394;2022-10-20T01:30:57;12.47;;;8.63;;
10467;SDS011;5281;48.878;9.394;2022-10-20T01:33:29;14.90;;;8.57;;
10467;SDS011;5281;48.878;9.394;2022-10-20T01:36:01;10.93;;;8.67;;
10467;SDS011;5281;48.878;9.394;2022-10-20T01:38:34;12.70;;;8.80;;
10467;SDS011;5281;48.878;9.394;2022-10-20T01:41:07;10.13;;;8.67;;
10467;SDS011;5281;48.878;9.394;2022-10-20T01:43:41;10.90;;;8.93;;
10467;SDS011;5281;48.878;9.394;2022-10-20T01:46:11;12.33;;;9.07;;
10467;SDS011;5281;48.878;9.394;2022-10-20T01:48:40;10.60;;;8.70;;
10467;SDS011;5281;48.878;9.394;2022-10-20T01:51:07;9.97;;;7.87;;
10467;SDS011;5281;48.878;9.394;2022-10-20T01:53:35;10.53;;;8.47;;
10467;SDS011;5281;48.878;9.394;2022-10-20T01:56:02;12.47;;;8.73;;
10467;SDS011;5281;48.878;9.394;2022-10-20T02:01:25;12.93;;;7.83;;
10467;SDS011;5281;48.878;9.394;2022-10-20T02:03:57;15.13;;;8.97;;
10467;SDS011;5281;48.878;9.394;2022-10-20T02:06:29;10.87;;;8.43;;
10467;SDS011;5281;48.878;9.394;2022-10-20T02:09:02;11.87;;;8.33;;
10467;SDS011;5281;48.878;9.394;2022-10-20T02:11:34;10.63;;;8.13;;
10467;SDS011;5281;48.878;9.394;2022-10-20T02:14:08;12.30;;;8.63;;
10467;SDS011;5281;48.878;9.394;2022-10-20T02:16:38;13.97;;;7.90;;
10467;SDS011;5281;48.878;9.394;2022-10-20T02:19:10;14.17;;;8.17;;
10467;SDS011;5281;48.878;9.394;2022-10-20T02:21:39;9.57;;;7.70;;
10467;SDS011;5281;48.878;9.394;2022-10-20T02:24:07;11.10;;;9.03;;
10467;SDS011;5281;48.878;9.394;2022-10-20T02:26:35;10.47;;;8.03;;
10467;SDS011;5281;48.878;9.394;2022-10-20T02:29:04;11.27;;;8.00;;
10467;SDS011;5281;48.878;9.394;2022-10-20T02:31:39;11.37;;;8.23;;
10467;SDS011;5281;48.878;9.394;2022-10-20T02:34:06;9.50;;;7.57;;
10467;SDS011;5281;48.878;9.394;2022-10-20T02:36:35;9.30;;;8.30;;
10467;SDS011;5281;48.878;9.394;2022-10-20T02:39:04;14.10;;;7.97;;
10467;SDS011;5281;48.878;9.394;2022-10-20T02:41:31;10.13;;;7.83;;
10467;SDS011;5281;48.878;9.394;2022-10-20T02:43:58;13.13;;;8.20;;
10467;SDS011;5281;48.878;9.394;2022-10-20T02:46:26;15.07;;;8.10;;
10467;SDS011;5281;48.878;9.394;2022-10-20T02:48:53;10.47;;;8.90;;
10467;SDS011;5281;48.878;9.394;2022-10-20T02:51:20;12.77;;;9.10;;
10467;SDS011;5281;48.878;9.394;2022-10-20T02:53:47;11.73;;;8.77;;
10467;SDS011;5281;48.878;9.394;2022-10-20T02:56:14;12.87;;;9.57;;
10467;SDS011;5281;48.878;9.394;2022-10-20T02:58:40;14.93;;;9.53;;
10467;SDS011;5281;48.878;9.394;2022-10-20T03:01:08;11.47;;;9.10;;
10467;SDS011;5281;48.878;9.394;2022-10-20T03:03:36;11.97;;;9.47;;
10467;SDS011;5281;48.878;9.394;2022-10-20T03:06:07;13.70;;;10.10;;
10467;SDS011;5281;48.878;9.394;2022-10-20T03:08:35;12.97;;;10.07;;
10467;SDS011;5281;48.878;9.394;2022-10-20T03:11:01;15.40;;;9.60;;
10467;SDS011;5281;48.878;9.394;2022-10-20T03:13:28;14.67;;;9.87;;
10467;SDS011;5281;48.878;9.394;2022-10-20T03:15:55;13.77;;;9.40;;
10467;SDS011;5281;48.878;9.394;2022-10-20T03:18:22;13.00;;;9.87;;
10467;SDS011;5281;48.878;9.394;2022-10-20T03:20:50;16.53;;;9.83;;
10467;SDS011;5281;48.878;9.394;2022-10-20T03:23:18;13.17;;;9.50;;
10467;SDS011;5281;48.878;9.394;2022-10-20T03:25:45;14.70;;;9.43;;
10467;SDS011;5281;48.878;9.394;2022-10-20T03:28:11;14.00;;;10.03;;
10467;SDS011;5281;48.878;9.394;2022-10-20T03:30:38;13.50;;;9.73;;
10467;SDS011;5281;48.878;9.394;2022-10-20T03:33:05;14.70;;;9.53;;
10467;SDS011;5281;48.878;9.394;2022-10-20T03:35:32;14.70;;;8.77;;
10467;SDS011;5281;48.878;9.394;2022-10-20T03:38:00;16.17;;;9.40;;
10467;SDS011;5281;48.878;9.394;2022-10-20T03:40:26;16.40;;;8.87;;
10467;SDS011;5281;48.878;9.394;2022-10-20T03:42:53;12.73;;;9.43;;
10467;SDS011;5281;48.878;9.394;2022-10-20T03:45:20;14.03;;;9.20;;
10467;SDS011;5281;48.878;9.394;2022-10-20T03:47:47;14.50;;;9.20;;
10467;SDS011;5281;48.878;9.394;2022-10-20T03:50:14;11.20;;;8.70;;
10467;SDS011;5281;48.878;9.394;2022-10-20T03:52:41;13.07;;;9.10;;
10467;SDS011;5281;48.878;9.394;2022-10-20T03:55:09;13.77;;;8.90;;
10467;SDS011;5281;48.878;9.394;2022-10-20T03:57:35;14.27;;;9.13;;
10467;SDS011;5281;48.878;9.394;2022-10-20T04:00:02;14.27;;;9.80;;
10467;SDS011;5281;48.878;9.394;2022-10-20T04:02:31;14.53;;;9.70;;
10467;SDS011;5281;48.878;9.394;2022-10-20T04:04:59;13.90;;;9.57;;
10467;SDS011;5281;48.878;9.394;2022-10-20T04:07:26;15.47;;;9.83;;
10467;SDS011;5281;48.878;9.394;2022-10-20T04:09:52;18.00;;;12.60;;
10467;SDS011;5281;48.878;9.394;2022-10-20T04:12:21;15.70;;;10.57;;
10467;SDS011;5281;48.878;9.394;2022-10-20T04:14:48;14.73;;;10.40;;
10467;SDS011;5281;48.878;9.394;2022-10-20T04:17:15;17.43;;;11.20;;
10467;SDS011;5281;48.878;9.394;2022-10-20T04:19:42;18.07;;;10.83;;
10467;SDS011;5281;48.878;9.394;2022-10-20T04:22:09;14.87;;;10.60;;
10467;SDS011;5281;48.878;9.394;2022-10-20T04:24:35;19.00;;;10.77;;
10467;SDS011;5281;48.878;9.394;2022-10-20T04:27:02;18.53;;;11.33;;
10467;SDS011;5281;48.878;9.394;2022-10-20T04:29:31;16.50;;;11.50;;
10467;SDS011;5281;48.878;9.394;2022-10-20T04:31:57;15.27;;;11.10;;
10467;SDS011;5281;48.878;9.394;2022-10-20T04:34:24;13.83;;;10.23;;
10467;SDS011;5281;48.878;9.394;2022-10-20T04:36:51;13.63;;;9.70;;
10467;SDS011;5281;48.878;9.394;2022-10-20T04:39:18;15.07;;;9.70;;
10467;SDS011;5281;48.878;9.394;2022-10-20T04:41:45;15.23;;;10.40;;
10467;SDS011;5281;48.878;9.394;2022-10-20T04:44:12;13.27;;;9.60;;
10467;SDS011;5281;48.878;9.394;2022-10-20T04:46:40;13.87;;;9.47;;
10467;SDS011;5281;48.878;9.394;2022-10-20T04:49:06;12.73;;;9.67;;
10467;SDS011;5281;48.878;9.394;2022-10-20T04:51:33;13.77;;;10.43;;
10467;SDS011;5281;48.878;9.394;2022-10-20T04:54:00;14.23;;;9.87;;
10467;SDS011;5281;48.878;9.394;2022-10-20T04:56:27;10.80;;;8.53;;
10467;SDS011;5281;48.878;9.394;2022-10-20T04:58:54;11.90;;;8.87;;
10467;SDS011;5281;48.878;9.394;2022-10-20T05:01:23;16.23;;;9.80;;
10467;SDS011;5281;48.878;9.394;2022-10-20T05:03:52;12.07;;;8.87;;
10467;SDS011;5281;48.878;9.394;2022-10-20T05:06:20;12.67;;;9.00;;
10467;SDS011;5281;48.878;9.394;2022-10-20T05:08:48;11.27;;;8.57;;
10467;SDS011;5281;48.878;9.394;2022-10-20T05:11:17;10.47;;;8.53;;
10467;SDS011;5281;48.878;9.394;2022-10-20T05:13:44;10.37;;;8.73;;
10467;SDS011;5281;48.878;9.394;2022-10-20T05:16:11;12.40;;;8.63;;
10467;SDS011;5281;48.878;9.394;2022-10-20T05:18:39;11.20;;;8.73;;
10467;SDS011;5281;48.878;9.394;2022-10-20T05:21:07;12.40;;;8.47;;
10467;SDS011;5281;48.878;9.394;2022-10-20T05:23:36;11.10;;;7.87;;
10467;SDS011;5281;48.878;9.394;2022-10-20T05:26:04;10.73;;;8.33;;
10467;SDS011;5281;48.878;9.394;2022-10-20T05:28:32;10.60;;;8.07;;
10467;SDS011;5281;48.878;9.394;2022-10-20T05:30:59;10.60;;;7.87;;
10467;SDS011;5281;48.878;9.394;2022-10-20T05:33:26;10.80;;;7.90;;
10467;SDS011;5281;48.878;9.394;2022-10-20T05:35:53;12.57;;;7.57;;
10467;SDS011;5281;48.878;9.394;2022-10-20T05:38:21;9.10;;;7.40;;
10467;SDS011;5281;48.878;9.394;2022-10-20T05:40:48;10.80;;;7.57;;
10467;SDS011;5281;48.878;9.394;2022-10-20T05:43:16;9.43;;;7.23;;
10467;SDS011;5281;48.878;9.394;2022-10-20T05:45:42;10.07;;;7.13;;
10467;SDS011;5281;48.878;9.394;2022-10-20T05:48:09;8.97;;;7.03;;
10467;SDS011;5281;48.878;9.394;2022-10-20T05:50:36;9.13;;;6.70;;
10467;SDS011;5281;48.878;9.394;2022-10-20T05:53:03;9.73;;;6.57;;
10467;SDS011;5281;48.878;9.394;2022-10-20T05:55:31;8.10;;;6.20;;
10467;SDS011;5281;48.878;9.394;2022-10-20T05:57:58;9.47;;;6.90;;
10467;SDS011;5281;48.878;9.394;2022-10-20T06:00:25;8.90;;;7.27;;
10467;SDS011;5281;48.878;9.394;2022-10-20T06:02:55;6.97;;;6.10;;
10467;SDS011;5281;48.878;9.394;2022-10-20T06:05:22;10.33;;;7.00;;
10467;SDS011;5281;48.878;9.394;2022-10-20T06:07:49;9.07;;;7.07;;
10467;SDS011;5281;48.878;9.394;2022-10-20T06:10:18;8.77;;;6.80;;
10467;SDS011;5281;48.878;9.394;2022-10-20T06:12:46;8.33;;;6.50;;
10467;SDS011;5281;48.878;9.394;2022-10-20T06:15:12;7.97;;;6.77;;
10467;SDS011;5281;48.878;9.394;2022-10-20T06:17:39;9.93;;;6.87;;
10467;SDS011;5281;48.878;9.394;2022-10-20T06:20:06;10.27;;;6.20;;
10467;SDS011;5281;48.878;9.394;2022-10-20T06:22:33;8.50;;;6.60;;
10467;SDS011;5281;48.878;9.394;2022-10-20T06:25:00;6.63;;;6.00;;
10467;SDS011;5281;48.878;9.394;2022-10-20T06:27:27;7.07;;;6.20;;
10467;SDS011;5281;48.878;9.394;2022-10-20T06:29:55;7.27;;;6.57;;
10467;SDS011;5281;48.878;9.394;2022-10-20T06:32:22;8.37;;;6.53;;
10467;SDS011;5281;48.878;9.394;2022-10-20T06:34:49;7.83;;;6.13;;
10467;SDS011;5281;48.878;9.394;2022-10-20T06:37:15;7.87;;;6.03;;
10467;SDS011;5281;48.878;9.394;2022-10-20T06:39:42;7.23;;;6.30;;
10467;SDS011;5281;48.878;9.394;2022-10-20T06:42:09;7.00;;;6.20;;
10467;SDS011;5281;48.878;9.394;2022-10-20T06:44:36;8.63;;;5.90;;
10467;SDS011;5281;48.878;9.394;2022-10-20T06:47:04;6.60;;;5.80;;
10467;SDS011;5281;48.878;9.394;2022-10-20T06:49:34;6.83;;;5.63;;
10467;SDS011;5281;48.878;9.394;2022-10-20T06:52:01;7.77;;;5.80;;
10467;SDS011;5281;48.878;9.394;2022-10-20T06:54:28;6.03;;;5.40;;
10467;SDS011;5281;48.878;9.394;2022-10-20T06:56:55;7.20;;;5.33;;
10467;SDS011;5281;48.878;9.394;2022-10-20T06:59:21;7.13;;;5.03;;
10467;SDS011;5281;48.878;9.394;2022-10-20T07:01:48;5.80;;;5.10;;
10467;SDS011;5281;48.878;9.394;2022-10-20T07:04:18;6.40;;;5.13;;
10467;SDS011;5281;48.878;9.394;2022-10-20T07:06:44;7.43;;;6.00;;
10467;SDS011;5281;48.878;9.394;2022-10-20T07:09:12;5.70;;;4.83;;
10467;SDS011;5281;48.878;9.394;2022-10-20T07:11:40;6.20;;;4.83;;
10467;SDS011;5281;48.878;9.394;2022-10-20T07:14:08;5.30;;;4.80;;
10467;SDS011;5281;48.878;9.394;2022-10-20T07:16:36;5.33;;;4.57;;
10467;SDS011;5281;48.878;9.394;2022-10-20T07:19:03;6.90;;;4.80;;
10467;SDS011;5281;48.878;9.394;2022-10-20T07:21:31;7.53;;;4.83;;
10467;SDS011;5281;48.878;9.394;2022-10-20T07:24:00;5.13;;;4.63;;
10467;SDS011;5281;48.878;9.394;2022-10-20T07:26:30;5.10;;;4.60;;
10467;SDS011;5281;48.878;9.394;2022-10-20T07:28:58;6.03;;;4.77;;
10467;SDS011;5281;48.878;9.394;2022-10-20T07:31:27;5.90;;;4.30;;
10467;SDS011;5281;48.878;9.394;2022-10-20T07:33:56;5.10;;;4.22;;
10467;SDS011;5281;48.878;9.394;2022-10-20T07:36:24;6.20;;;4.47;;
10467;SDS011;5281;48.878;9.394;2022-10-20T07:38:54;5.75;;;4.28;;
10467;SDS011;5281;48.878;9.394;2022-10-20T07:41:22;5.73;;;4.47;;
10467;SDS011;5281;48.878;9.394;2022-10-20T07:43:49;5.07;;;4.57;;
10467;SDS011;5281;48.878;9.394;2022-10-20T07:46:17;3.90;;;3.50;;
10467;SDS011;5281;48.878;9.394;2022-10-20T07:48:43;6.40;;;3.85;;
10467;SDS011;5281;48.878;9.394;2022-10-20T07:51:14;5.57;;;4.00;;
10467;SDS011;5281;48.878;9.394;2022-10-20T07:53:42;4.75;;;4.25;;
10467;SDS011;5281;48.878;9.394;2022-10-20T07:56:10;7.32;;;3.97;;
10467;SDS011;5281;48.878;9.394;2022-10-20T07:58:37;4.70;;;3.75;;
10467;SDS011;5281;48.878;9.394;2022-10-20T08:01:04;4.87;;;4.13;;
10467;SDS011;5281;48.878;9.394;2022-10-20T08:03:32;4.32;;;3.92;;
10467;SDS011;5281;48.878;9.394;2022-10-20T08:05:59;6.45;;;3.88;;
10467;SDS011;5281;48.878;9.394;2022-10-20T08:08:26;5.05;;;4.10;;
10467;SDS011;5281;48.878;9.394;2022-10-20T08:10:53;4.03;;;3.47;;
10467;SDS011;5281;48.878;9.394;2022-10-20T08:13:21;4.50;;;3.90;;
10467;SDS011;5281;48.878;9.394;2022-10-20T08:15:48;7.68;;;3.67;;
10467;SDS011;5281;48.878;9.394;2022-10-20T08:18:14;4.28;;;3.85;;
10467;SDS011;5281;48.878;9.394;2022-10-20T08:20:41;4.60;;;3.67;;
10467;SDS011;5281;48.878;9.394;2022-10-20T08:23:09;4.35;;;3.90;;
10467;SDS011;5281;48.878;9.394;2022-10-20T08:25:36;4.43;;;4.00;;
10467;SDS011;5281;48.878;9.394;2022-10-20T08:28:02;6.03;;;3.72;;
10467;SDS011;5281;48.878;9.394;2022-10-20T08:30:31;3.70;;;3.25;;
10467;SDS011;5281;48.878;9.394;2022-10-20T08:32:58;5.40;;;3.47;;
10467;SDS011;5281;48.878;9.394;2022-10-20T08:35:24;4.30;;;3.58;;
10467;SDS011;5281;48.878;9.394;2022-10-20T08:37:51;4.00;;;3.58;;
10467;SDS011;5281;48.878;9.394;2022-10-20T08:40:20;4.82;;;3.40;;
10467;SDS011;5281;48.878;9.394;2022-10-20T08:42:49;3.75;;;3.38;;
10467;SDS011;5281;48.878;9.394;2022-10-20T08:45:17;3.60;;;3.30;;
10467;SDS011;5281;48.878;9.394;2022-10-20T08:47:48;3.50;;;3.20;;
10467;SDS011;5281;48.878;9.394;2022-10-20T08:50:17;3.58;;;3.28;;
10467;SDS011;5281;48.878;9.394;2022-10-20T08:52:45;4.05;;;3.65;;
10467;SDS011;5281;48.878;9.394;2022-10-20T08:55:18;4.47;;;3.20;;
10467;SDS011;5281;48.878;9.394;2022-10-20T08:57:49;4.47;;;3.33;;
10467;SDS011;5281;48.878;9.394;2022-10-20T09:00:17;3.38;;;3.08;;
10467;SDS011;5281;48.878;9.394;2022-10-20T09:02:48;5.30;;;3.55;;
10467;SDS011;5281;48.878;9.394;2022-10-20T09:05:16;3.88;;;3.28;;
10467;SDS011;5281;48.878;9.394;2022-10-20T09:07:47;3.28;;;2.97;;
10467;SDS011;5281;48.878;9.394;2022-10-20T09:10:19;3.60;;;3.20;;
10467;SDS011;5281;48.878;9.394;2022-10-20T09:12:52;3.75;;;3.17;;
10467;SDS011;5281;48.878;9.394;2022-10-20T09:15:19;6.18;;;3.17;;
10467;SDS011;5281;48.878;9.394;2022-10-20T09:17:50;3.13;;;2.83;;
10467;SDS011;5281;48.878;9.394;2022-10-20T09:20:20;3.20;;;2.90;;
10467;SDS011;5281;48.878;9.394;2022-10-20T09:22:49;6.28;;;3.10;;
10467;SDS011;5281;48.878;9.394;2022-10-20T09:25:17;7.63;;;3.45;;
10467;SDS011;5281;48.878;9.394;2022-10-20T09:27:48;7.82;;;3.67;;
10467;SDS011;5281;48.878;9.394;2022-10-20T09:30:16;5.03;;;3.05;;
10467;SDS011;5281;48.878;9.394;2022-10-20T09:32:45;8.15;;;3.13;;
10467;SDS011;5281;48.878;9.394;2022-10-20T09:35:22;4.38;;;3.00;;
10467;SDS011;5281;48.878;9.394;2022-10-20T09:37:55;2.90;;;2.60;;
10467;SDS011;5281;48.878;9.394;2022-10-20T09:40:25;3.22;;;2.90;;
10467;SDS011;5281;48.878;9.394;2022-10-20T09:42:53;5.25;;;3.08;;
10467;SDS011;5281;48.878;9.394;2022-10-20T09:45:22;2.78;;;2.35;;
10467;SDS011;5281;48.878;9.394;2022-10-20T09:47:53;4.30;;;2.88;;
10467;SDS011;5281;48.878;9.394;2022-10-20T09:50:28;4.38;;;2.83;;
10467;SDS011;5281;48.878;9.394;2022-10-20T09:52:57;4.40;;;2.65;;
10467;SDS011;5281;48.878;9.394;2022-10-20T09:55:27;4.55;;;2.78;;
10467;SDS011;5281;48.878;9.394;2022-10-20T09:57:57;4.55;;;2.58;;
10467;SDS011;5281;48.878;9.394;2022-10-20T10:00:27;2.88;;;2.67;;
10467;SDS011;5281;48.878;9.394;2022-10-20T10:03:11;3.58;;;2.53;;
10467;SDS011;5281;48.878;9.394;2022-10-20T10:05:46;2.97;;;2.70;;
10467;SDS011;5281;48.878;9.394;2022-10-20T10:08:14;2.60;;;2.40;;
10467;SDS011;5281;48.878;9.394;2022-10-20T10:10:42;4.20;;;2.70;;
10467;SDS011;5281;48.878;9.394;2022-10-20T10:13:20;2.78;;;2.58;;
10467;SDS011;5281;48.878;9.394;2022-10-20T10:15:57;7.57;;;3.15;;
10467;SDS011;5281;48.878;9.394;2022-10-20T10:18:30;3.78;;;2.65;;
10467;SDS011;5281;48.878;9.394;2022-10-20T10:20:59;4.55;;;2.20;;
10467;SDS011;5281;48.878;9.394;2022-10-20T10:23:28;5.45;;;2.75;;
10467;SDS011;5281;48.878;9.394;2022-10-20T10:25:57;7.85;;;3.10;;
10467;SDS011;5281;48.878;9.394;2022-10-20T10:28:31;4.80;;;2.50;;
10467;SDS011;5281;48.878;9.394;2022-10-20T10:31:08;6.00;;;2.50;;
10467;SDS011;5281;48.878;9.394;2022-10-20T10:33:44;7.70;;;2.60;;
10467;SDS011;5281;48.878;9.394;2022-10-20T10:36:24;2.95;;;2.42;;
10467;SDS011;5281;48.878;9.394;2022-10-20T10:38:54;3.70;;;2.67;;
10467;SDS011;5281;48.878;9.394;2022-10-20T10:41:24;4.53;;;2.58;;
10467;SDS011;5281;48.878;9.394;2022-10-20T10:44:02;4.30;;;2.40;;
10467;SDS011;5281;48.878;9.394;2022-10-20T10:46:36;5.72;;;2.55;;
10467;SDS011;5281;48.878;9.394;2022-10-20T10:49:18;4.50;;;2.33;;
10467;SDS011;5281;48.878;9.394;2022-10-20T10:51:58;3.05;;;2.60;;
10467;SDS011;5281;48.878;9.394;2022-10-20T10:54:40;2.90;;;2.50;;
10467;SDS011;5281;48.878;9.394;2022-10-20T10:57:14;4.25;;;2.38;;
10467;SDS011;5281;48.878;9.394;2022-10-20T10:59:50;3.50;;;2.40;;
10467;SDS011;5281;48.878;9.394;2022-10-20T11:05:12;3.25;;;2.67;;
10467;SDS011;5281;48.878;9.394;2022-10-20T11:07:52;4.07;;;2.30;;
10467;SDS011;5281;48.878;9.394;2022-10-20T11:10:30;4.03;;;2.30;;
10467;SDS011;5281;48.878;9.394;2022-10-20T11:13:10;3.20;;;2.38;;
10467;SDS011;5281;48.878;9.394;2022-10-20T11:18:40;5.93;;;2.67;;
10467;SDS011;5281;48.878;9.394;2022-10-20T11:21:17;3.50;;;2.50;;
10467;SDS011;5281;48.878;9.394;2022-10-20T11:23:59;4.57;;;2.47;;
10467;SDS011;5281;48.878;9.394;2022-10-20T11:26:33;4.57;;;2.40;;
10467;SDS011;5281;48.878;9.394;2022-10-20T11:29:02;3.90;;;2.55;;
10467;SDS011;5281;48.878;9.394;2022-10-20T11:31:32;3.40;;;2.53;;
10467;SDS011;5281;48.878;9.394;2022-10-20T11:34:03;4.10;;;2.55;;
10467;SDS011;5281;48.878;9.394;2022-10-20T11:36:36;3.35;;;2.70;;
10467;SDS011;5281;48.878;9.394;2022-10-20T11:39:10;6.18;;;2.70;;
10467;SDS011;5281;48.878;9.394;2022-10-20T11:41:43;3.78;;;2.83;;
10467;SDS011;5281;48.878;9.394;2022-10-20T11:44:13;7.30;;;2.70;;
10467;SDS011;5281;48.878;9.394;2022-10-20T11:46:44;5.80;;;2.40;;
10467;SDS011;5281;48.878;9.394;2022-10-20T11:49:13;2.88;;;2.58;;
10467;SDS011;5281;48.878;9.394;2022-10-20T11:51:46;7.07;;;2.75;;
10467;SDS011;5281;48.878;9.394;2022-10-20T11:57:35;3.67;;;2.42;;
10467;SDS011;5281;48.878;9.394;2022-10-20T12:00:21;3.67;;;2.53;;
10467;SDS011;5281;48.878;9.394;2022-10-20T12:03:23;4.18;;;2.70;;
10467;SDS011;5281;48.878;9.394;2022-10-20T12:06:24;5.35;;;2.65;;
10467;SDS011;5281;48.878;9.394;2022-10-20T12:11:59;5.95;;;2.90;;
10467;SDS011;5281;48.878;9.394;2022-10-20T12:14:30;4.68;;;2.80;;
10467;SDS011;5281;48.878;9.394;2022-10-20T12:17:03;5.43;;;2.75;;
10467;SDS011;5281;48.878;9.394;2022-10-20T12:19:37;2.80;;;2.60;;
10467;SDS011;5281;48.878;9.394;2022-10-20T12:22:05;4.05;;;2.80;;
10467;SDS011;5281;48.878;9.394;2022-10-20T12:27:44;3.58;;;3.00;;
10467;SDS011;5281;48.878;9.394;2022-10-20T12:30:40;6.32;;;4.22;;
10467;SDS011;5281;48.878;9.394;2022-10-20T12:33:16;9.25;;;3.85;;
10467;SDS011;5281;48.878;9.394;2022-10-20T12:38:39;3.65;;;3.20;;
10467;SDS011;5281;48.878;9.394;2022-10-20T12:41:07;7.07;;;3.53;;
10467;SDS011;5281;48.878;9.394;2022-10-20T12:43:44;7.72;;;3.40;;
10467;SDS011;5281;48.878;9.394;2022-10-20T12:46:19;4.30;;;3.30;;
10467;SDS011;5281;48.878;9.394;2022-10-20T12:48:48;5.30;;;3.10;;
10467;SDS011;5281;48.878;9.394;2022-10-20T12:51:34;4.25;;;2.92;;
10467;SDS011;5281;48.878;9.394;2022-10-20T12:54:06;5.65;;;3.22;;
10467;SDS011;5281;48.878;9.394;2022-10-20T12:56:41;6.72;;;3.58;;
10467;SDS011;5281;48.878;9.394;2022-10-20T13:02:28;6.00;;;3.35;;
10467;SDS011;5281;48.878;9.394;2022-10-20T13:04:57;3.45;;;3.00;;
10467;SDS011;5281;48.878;9.394;2022-10-20T13:10:41;6.22;;;3.50;;
10467;SDS011;5281;48.878;9.394;2022-10-20T13:16:10;7.85;;;3.30;;
10467;SDS011;5281;48.878;9.394;2022-10-20T13:18:46;7.32;;;3.67;;
10467;SDS011;5281;48.878;9.394;2022-10-20T13:21:28;4.50;;;3.20;;
10467;SDS011;5281;48.878;9.394;2022-10-20T13:24:02;7.18;;;3.28;;
10467;SDS011;5281;48.878;9.394;2022-10-20T13:26:35;6.60;;;3.22;;
10467;SDS011;5281;48.878;9.394;2022-10-20T13:29:09;4.15;;;3.75;;
10467;SDS011;5281;48.878;9.394;2022-10-20T13:31:40;7.30;;;3.60;;
10467;SDS011;5281;48.878;9.394;2022-10-20T13:34:13;5.30;;;3.78;;
10467;SDS011;5281;48.878;9.394;2022-10-20T13:36:47;5.47;;;3.63;;
10467;SDS011;5281;48.878;9.394;2022-10-20T13:39:26;5.50;;;3.80;;
10467;SDS011;5281;48.878;9.394;2022-10-20T13:42:03;4.40;;;4.00;;
10467;SDS011;5281;48.878;9.394;2022-10-20T13:44:38;4.75;;;3.95;;
10467;SDS011;5281;48.878;9.394;2022-10-20T13:47:22;6.32;;;4.00;;
10467;SDS011;5281;48.878;9.394;2022-10-20T13:50:10;7.18;;;4.00;;
10467;SDS011;5281;48.878;9.394;2022-10-20T13:52:39;6.82;;;4.30;;
10467;SDS011;5281;48.878;9.394;2022-10-20T13:55:11;5.22;;;4.20;;
10467;SDS011;5281;48.878;9.394;2022-10-20T13:57:45;6.82;;;3.90;;
10467;SDS011;5281;48.878;9.394;2022-10-20T14:00:16;8.63;;;3.78;;
10467;SDS011;5281;48.878;9.394;2022-10-20T14:02:52;6.75;;;3.95;;
10467;SDS011;5281;48.878;9.394;2022-10-20T14:05:21;6.80;;;3.95;;
10467;SDS011;5281;48.878;9.394;2022-10-20T14:07:48;6.97;;;3.70;;
10467;SDS011;5281;48.878;9.394;2022-10-20T14:10:19;4.70;;;4.18;;
10467;SDS011;5281;48.878;9.394;2022-10-20T14:12:48;6.05;;;4.50;;
10467;SDS011;5281;48.878;9.394;2022-10-20T14:15:15;5.93;;;3.88;;
10467;SDS011;5281;48.878;9.394;2022-10-20T14:17:55;5.18;;;4.35;;
10467;SDS011;5281;48.878;9.394;2022-10-20T14:20:27;5.78;;;4.50;;
10467;SDS011;5281;48.878;9.394;2022-10-20T14:22:56;4.65;;;4.25;;
10467;SDS011;5281;48.878;9.394;2022-10-20T14:25:24;8.05;;;4.90;;
10467;SDS011;5281;48.878;9.394;2022-10-20T14:27:52;6.53;;;4.47;;
10467;SDS011;5281;48.878;9.394;2022-10-20T14:30:20;7.35;;;4.20;;
10467;SDS011;5281;48.878;9.394;2022-10-20T14:32:47;7.45;;;4.30;;
10467;SDS011;5281;48.878;9.394;2022-10-20T14:35:27;4.30;;;3.90;;
10467;SDS011;5281;48.878;9.394;2022-10-20T14:37:59;4.45;;;3.80;;
10467;SDS011;5281;48.878;9.394;2022-10-20T14:40:28;8.45;;;4.28;;
10467;SDS011;5281;48.878;9.394;2022-10-20T14:42:59;4.78;;;4.30;;
10467;SDS011;5281;48.878;9.394;2022-10-20T14:45:31;7.97;;;4.63;;
10467;SDS011;5281;48.878;9.394;2022-10-20T14:47:58;7.63;;;4.03;;
10467;SDS011;5281;48.878;9.394;2022-10-20T14:50:32;6.25;;;4.30;;
10467;SDS011;5281;48.878;9.394;2022-10-20T14:53:15;5.00;;;4.30;;
10467;SDS011;5281;48.878;9.394;2022-10-20T14:55:43;6.60;;;4.55;;
10467;SDS011;5281;48.878;9.394;2022-10-20T15:03:41;5.47;;;4.97;;
10467;SDS011;5281;48.878;9.394;2022-10-20T15:06:11;5.30;;;4.32;;
10467;SDS011;5281;48.878;9.394;2022-10-20T15:08:50;5.93;;;4.22;;
10467;SDS011;5281;48.878;9.394;2022-10-20T15:11:20;6.00;;;4.18;;
10467;SDS011;5281;48.878;9.394;2022-10-20T15:13:49;6.75;;;4.60;;
10467;SDS011;5281;48.878;9.394;2022-10-20T15:16:30;7.93;;;4.68;;
10467;SDS011;5281;48.878;9.394;2022-10-20T15:22:00;8.65;;;5.07;;
10467;SDS011;5281;48.878;9.394;2022-10-20T15:24:34;6.43;;;5.30;;
10467;SDS011;5281;48.878;9.394;2022-10-20T15:27:01;7.30;;;5.50;;
10467;SDS011;5281;48.878;9.394;2022-10-20T15:29:28;6.40;;;4.43;;
10467;SDS011;5281;48.878;9.394;2022-10-20T15:31:56;9.27;;;4.60;;
10467;SDS011;5281;48.878;9.394;2022-10-20T15:34:24;8.30;;;4.70;;
10467;SDS011;5281;48.878;9.394;2022-10-20T15:36:50;7.28;;;4.30;;
10467;SDS011;5281;48.878;9.394;2022-10-20T15:39:18;7.07;;;5.07;;
10467;SDS011;5281;48.878;9.394;2022-10-20T15:41:45;8.65;;;5.43;;
10467;SDS011;5281;48.878;9.394;2022-10-20T15:44:13;6.53;;;4.75;;
10467;SDS011;5281;48.878;9.394;2022-10-20T15:46:41;6.97;;;4.80;;
10467;SDS011;5281;48.878;9.394;2022-10-20T15:49:09;7.82;;;4.70;;
10467;SDS011;5281;48.878;9.394;2022-10-20T15:51:38;5.45;;;4.38;;
10467;SDS011;5281;48.878;9.394;2022-10-20T15:54:06;11.32;;;8.13;;
10467;SDS011;5281;48.878;9.394;2022-10-20T15:56:37;6.72;;;5.43;;